createdAt,value
2017-06-14T00:02:13.185Z,6.90
2017-06-14T00:04:40.631Z,7.07
2017-06-14T00:07:08.095Z,6.40
2017-06-14T00:09:35.558Z,6.33
2017-06-14T00:12:03.018Z,7.00
2017-06-14T00:14:30.470Z,6.40
2017-06-14T00:16:57.909Z,6.20
2017-06-14T00:19:25.364Z,6.73
2017-06-14T00:21:52.808Z,6.40
2017-06-14T00:24:20.254Z,6.53
2017-06-14T00:26:47.705Z,6.33
2017-06-14T00:29:15.929Z,7.00
2017-06-14T00:31:43.374Z,6.60
2017-06-14T00:34:10.821Z,7.07
2017-06-14T00:36:38.278Z,6.77
2017-06-14T00:39:05.722Z,6.57
2017-06-14T00:41:33.173Z,6.80
2017-06-14T00:44:00.630Z,7.00
2017-06-14T00:46:28.082Z,6.20
2017-06-14T00:48:56.286Z,6.57
2017-06-14T00:51:23.737Z,6.20
2017-06-14T00:53:51.182Z,7.60
2017-06-14T00:56:18.643Z,6.97
2017-06-14T00:58:46.093Z,7.30
2017-06-14T01:01:13.553Z,7.27
2017-06-14T01:03:41.795Z,7.60
2017-06-14T01:06:09.987Z,6.73
2017-06-14T01:08:37.430Z,6.97
2017-06-14T01:11:05.617Z,7.60
2017-06-14T01:13:33.042Z,6.67
2017-06-14T01:16:00.475Z,7.57
2017-06-14T01:18:27.915Z,6.93
2017-06-14T01:20:55.349Z,7.00
2017-06-14T01:23:22.778Z,6.90
2017-06-14T01:25:50.981Z,6.80
2017-06-14T01:28:18.406Z,7.10
2017-06-14T01:30:45.838Z,7.60
2017-06-14T01:33:13.266Z,6.93
2017-06-14T01:35:40.693Z,7.30
2017-06-14T01:38:08.881Z,6.87
2017-06-14T01:40:36.310Z,6.90
2017-06-14T01:43:04.518Z,7.40
2017-06-14T01:45:31.954Z,7.20
2017-06-14T01:48:00.146Z,7.70
2017-06-14T01:50:27.578Z,7.37
2017-06-14T01:52:55.104Z,8.30
2017-06-14T01:55:22.547Z,7.30
2017-06-14T01:57:49.983Z,7.83
2017-06-14T02:00:17.402Z,7.60
2017-06-14T02:02:44.831Z,7.03
2017-06-14T02:05:12.362Z,6.80
2017-06-14T02:07:39.789Z,8.00
2017-06-14T02:10:07.995Z,8.33
2017-06-14T02:12:35.430Z,8.37
2017-06-14T02:15:03.632Z,7.70
2017-06-14T02:17:31.070Z,8.20
2017-06-14T02:19:58.505Z,8.40
2017-06-14T02:22:26.703Z,7.87
2017-06-14T02:24:54.142Z,7.90
2017-06-14T02:27:22.346Z,8.97
2017-06-14T02:29:49.783Z,8.10
2017-06-14T02:32:17.208Z,8.73
2017-06-14T02:34:44.739Z,7.10
2017-06-14T02:37:12.157Z,8.00
2017-06-14T02:39:39.597Z,7.10
2017-06-14T02:42:07.792Z,7.50
2017-06-14T02:44:35.218Z,7.40
2017-06-14T02:47:03.409Z,7.00
2017-06-14T02:49:30.843Z,7.53
2017-06-14T02:51:58.274Z,8.17
2017-06-14T02:54:25.702Z,7.30
2017-06-14T02:56:53.130Z,7.17
2017-06-14T02:59:21.351Z,7.30
2017-06-14T03:01:48.792Z,7.40
2017-06-14T03:04:16.224Z,7.67
2017-06-14T03:06:45.530Z,7.93
2017-06-14T03:09:12.958Z,7.70
2017-06-14T03:11:41.158Z,8.17
2017-06-14T03:14:08.582Z,7.40
2017-06-14T03:16:36.018Z,7.07
2017-06-14T03:19:03.445Z,7.93
2017-06-14T03:21:30.887Z,8.20
2017-06-14T03:23:58.382Z,7.73
2017-06-14T03:26:25.823Z,7.83
2017-06-14T03:28:53.246Z,8.10
2017-06-14T03:31:21.451Z,8.40
2017-06-14T03:33:48.874Z,8.50
2017-06-14T03:36:17.071Z,8.23
2017-06-14T03:38:44.505Z,7.17
2017-06-14T03:41:11.948Z,7.73
2017-06-14T03:43:39.394Z,7.73
2017-06-14T03:46:06.814Z,8.53
2017-06-14T03:48:34.246Z,8.63
2017-06-14T03:51:01.686Z,8.83
2017-06-14T03:53:29.882Z,8.30
2017-06-14T03:55:57.310Z,7.57
2017-06-14T03:58:25.528Z,7.67
2017-06-14T04:00:52.954Z,7.67
2017-06-14T04:03:21.151Z,8.10
2017-06-14T04:05:48.590Z,8.43
2017-06-14T04:08:16.025Z,8.50
2017-06-14T04:10:43.470Z,8.23
2017-06-14T04:13:10.903Z,7.70
2017-06-14T04:15:38.357Z,8.00
2017-06-14T04:18:05.803Z,8.80
2017-06-14T04:20:33.271Z,8.10
2017-06-14T04:23:00.699Z,8.30
2017-06-14T04:25:28.131Z,8.87
2017-06-14T04:27:56.327Z,8.20
2017-06-14T04:30:23.763Z,7.77
2017-06-14T04:32:51.949Z,7.90
2017-06-14T04:35:19.863Z,8.77
2017-06-14T04:37:47.287Z,7.93
2017-06-14T04:40:14.739Z,8.50
2017-06-14T04:42:42.161Z,7.37
2017-06-14T04:45:09.587Z,7.53
2017-06-14T04:47:37.019Z,8.53
2017-06-14T04:50:04.446Z,7.90
2017-06-14T04:52:32.658Z,7.33
2017-06-14T04:55:00.102Z,8.23
2017-06-14T04:57:27.542Z,8.10
2017-06-14T04:59:55.743Z,8.13
2017-06-14T05:02:23.182Z,7.73
2017-06-14T05:04:50.673Z,8.80
2017-06-14T05:07:18.106Z,8.10
2017-06-14T05:09:45.531Z,7.83
2017-06-14T05:12:12.969Z,7.47
2017-06-14T05:14:40.394Z,7.47
2017-06-14T05:17:07.813Z,7.50
2017-06-14T05:19:36.005Z,8.10
2017-06-14T05:22:03.434Z,7.37
2017-06-14T05:24:31.637Z,7.80
2017-06-14T05:26:59.074Z,8.03
2017-06-14T05:29:27.277Z,7.90
2017-06-14T05:31:54.695Z,8.30
2017-06-14T05:34:22.909Z,8.90
2017-06-14T05:36:50.349Z,8.73
2017-06-14T05:39:17.791Z,8.07
2017-06-14T05:41:46.007Z,8.10
2017-06-14T05:44:13.442Z,8.23
2017-06-14T05:46:40.870Z,8.03
2017-06-14T05:49:09.104Z,9.30
2017-06-14T05:51:36.549Z,9.43
2017-06-14T05:54:03.974Z,9.20
2017-06-14T05:56:32.188Z,9.50
2017-06-14T05:58:59.610Z,8.37
2017-06-14T06:01:27.065Z,9.70
2017-06-14T06:03:55.337Z,8.57
2017-06-14T06:06:23.551Z,8.33
2017-06-14T06:08:50.998Z,9.10
2017-06-14T06:11:18.441Z,8.77
2017-06-14T06:13:45.889Z,9.10
2017-06-14T06:16:14.114Z,8.70
2017-06-14T06:18:41.557Z,9.50
2017-06-14T06:21:09.019Z,9.50
2017-06-14T06:23:36.486Z,9.20
2017-06-14T06:26:03.925Z,9.40
2017-06-14T06:28:31.390Z,9.57
2017-06-14T06:30:58.841Z,9.67
2017-06-14T06:33:26.309Z,8.50
2017-06-14T06:35:53.753Z,8.30
2017-06-14T06:38:21.197Z,8.50
2017-06-14T06:40:49.446Z,9.40
2017-06-14T06:43:16.905Z,9.20
2017-06-14T06:45:45.118Z,7.90
2017-06-14T06:48:12.570Z,9.50
2017-06-14T06:50:40.012Z,9.23
2017-06-14T06:53:07.469Z,9.23
2017-06-14T06:55:34.929Z,9.53
2017-06-14T06:58:02.390Z,9.00
2017-06-14T07:00:29.828Z,9.30
2017-06-14T07:02:58.070Z,8.30
2017-06-14T07:05:25.813Z,9.30
2017-06-14T07:07:53.249Z,8.20
2017-06-14T07:10:20.697Z,8.50
2017-06-14T07:12:48.133Z,8.33
2017-06-14T07:15:16.351Z,8.37
2017-06-14T07:17:43.785Z,7.70
2017-06-14T07:20:11.238Z,7.73
2017-06-14T07:22:38.677Z,7.67
2017-06-14T07:25:06.894Z,6.80
2017-06-14T07:27:34.350Z,6.27
2017-06-14T07:30:01.799Z,7.90
2017-06-14T07:32:29.246Z,6.50
2017-06-14T07:34:56.700Z,6.53
2017-06-14T07:37:24.133Z,6.70
2017-06-14T07:39:52.365Z,6.60
2017-06-14T07:42:19.814Z,6.87
2017-06-14T07:44:47.254Z,6.07
2017-06-14T07:47:14.710Z,6.10
2017-06-14T07:49:42.159Z,5.90
2017-06-14T07:52:09.614Z,6.43
2017-06-14T07:54:37.058Z,6.30
2017-06-14T07:57:05.298Z,6.17
2017-06-14T07:59:32.747Z,6.17
2017-06-14T08:02:00.191Z,5.63
2017-06-14T08:04:27.638Z,6.67
2017-06-14T08:06:55.090Z,5.40
2017-06-14T08:09:22.543Z,6.10
2017-06-14T08:11:49.990Z,6.43
2017-06-14T08:14:17.434Z,6.30
2017-06-14T08:16:45.647Z,6.90
2017-06-14T08:19:13.086Z,5.70
2017-06-14T08:21:40.543Z,6.70
2017-06-14T08:24:07.986Z,6.00
2017-06-14T08:26:35.430Z,5.90
2017-06-14T08:29:03.653Z,5.60
2017-06-14T08:31:31.098Z,6.10
2017-06-14T08:33:58.543Z,6.40
2017-06-14T08:36:25.985Z,5.33
2017-06-14T08:38:53.433Z,5.40
2017-06-14T08:41:21.643Z,6.00
2017-06-14T08:43:49.086Z,6.10
2017-06-14T08:46:16.532Z,7.17
2017-06-14T08:48:43.999Z,7.20
2017-06-14T08:51:11.441Z,6.40
2017-06-14T08:53:39.654Z,6.50
2017-06-14T08:56:07.102Z,6.10
2017-06-14T08:58:34.658Z,6.57
2017-06-14T09:01:02.090Z,6.73
2017-06-14T09:03:30.316Z,6.60
2017-06-14T09:05:57.786Z,6.00
2017-06-14T09:08:26.537Z,6.00
2017-06-14T09:10:53.999Z,7.00
2017-06-14T09:13:21.450Z,6.10
2017-06-14T09:15:48.900Z,6.40
2017-06-14T09:18:16.350Z,6.70
2017-06-14T09:20:43.806Z,5.90
2017-06-14T09:23:11.262Z,5.70
2017-06-14T09:25:39.694Z,5.43
2017-06-14T09:28:07.139Z,5.87
2017-06-14T09:30:34.585Z,6.20
2017-06-14T09:33:02.049Z,5.70
2017-06-14T09:35:29.522Z,6.00
2017-06-14T09:37:56.967Z,5.47
2017-06-14T09:40:24.405Z,6.17
2017-06-14T09:42:51.921Z,6.20
2017-06-14T09:45:20.152Z,5.70
2017-06-14T09:47:47.621Z,6.20
2017-06-14T09:50:15.085Z,5.60
2017-06-14T09:52:42.540Z,6.47
2017-06-14T09:55:09.989Z,6.47
2017-06-14T09:57:37.461Z,6.17
2017-06-14T10:00:04.901Z,6.30
2017-06-14T10:02:32.346Z,5.50
2017-06-14T10:04:59.790Z,5.80
2017-06-14T10:07:27.240Z,5.03
2017-06-14T10:09:54.694Z,5.53
2017-06-14T10:12:22.133Z,6.13
2017-06-14T10:14:50.355Z,6.23
2017-06-14T10:17:17.798Z,6.17
2017-06-14T10:19:45.258Z,5.17
2017-06-14T10:22:12.729Z,5.60
2017-06-14T10:24:40.231Z,6.00
2017-06-14T10:27:08.461Z,6.00
2017-06-14T10:29:35.897Z,6.07
2017-06-14T10:32:03.417Z,5.87
2017-06-14T10:34:31.637Z,6.03
2017-06-14T10:36:59.108Z,5.80
2017-06-14T10:39:26.550Z,5.30
2017-06-14T10:41:53.997Z,6.93
2017-06-14T10:44:27.925Z,6.43
2017-06-14T10:46:55.378Z,6.00
2017-06-14T10:49:22.861Z,6.77
2017-06-14T10:51:50.326Z,5.90
2017-06-14T10:54:17.771Z,6.10
2017-06-14T10:56:45.230Z,6.20
2017-06-14T10:59:12.674Z,5.47
2017-06-14T11:01:40.134Z,5.30
2017-06-14T11:04:07.582Z,5.93
2017-06-14T11:06:49.927Z,6.07
2017-06-14T11:09:17.382Z,5.80
2017-06-14T11:11:44.825Z,5.53
2017-06-14T11:14:12.269Z,5.90
2017-06-14T11:16:39.729Z,6.00
2017-06-14T11:19:07.161Z,6.00
2017-06-14T11:21:34.626Z,5.20
2017-06-14T11:24:02.101Z,6.27
2017-06-14T11:26:29.561Z,5.40
2017-06-14T11:28:57.011Z,5.93
2017-06-14T11:31:24.457Z,5.00
2017-06-14T11:33:51.923Z,6.20
2017-06-14T11:36:19.361Z,6.20
2017-06-14T11:38:46.813Z,6.07
2017-06-14T11:41:14.262Z,5.83
2017-06-14T11:43:41.718Z,5.57
2017-06-14T11:46:09.165Z,5.80
2017-06-14T11:48:36.625Z,6.73
2017-06-14T11:51:04.081Z,6.00
2017-06-14T11:53:31.559Z,6.40
2017-06-14T11:55:59.001Z,6.57
2017-06-14T11:58:26.444Z,6.13
2017-06-14T12:00:53.909Z,7.07
2017-06-14T12:03:21.371Z,6.20
2017-06-14T12:05:48.829Z,6.53
2017-06-14T12:08:16.280Z,6.07
2017-06-14T12:10:43.745Z,6.50
2017-06-14T12:13:11.185Z,5.97
2017-06-14T12:15:39.422Z,6.03
2017-06-14T12:18:06.870Z,5.63
2017-06-14T12:20:34.326Z,6.13
2017-06-14T12:23:01.767Z,5.90
2017-06-14T12:25:29.258Z,5.73
2017-06-14T12:27:56.706Z,6.33
2017-06-14T12:30:24.175Z,6.20
2017-06-14T12:32:51.627Z,6.13
2017-06-14T12:35:19.458Z,8.23
2017-06-14T12:37:46.912Z,5.90
2017-06-14T12:40:14.813Z,6.60
2017-06-14T12:42:42.389Z,6.20
2017-06-14T12:45:09.873Z,5.53
2017-06-14T12:47:38.109Z,5.83
2017-06-14T12:50:05.561Z,5.80
2017-06-14T12:52:33.026Z,5.77
2017-06-14T12:55:00.460Z,5.60
2017-06-14T12:57:27.918Z,5.73
2017-06-14T12:59:55.381Z,5.60
2017-06-14T13:02:22.828Z,5.50
2017-06-14T13:04:50.476Z,5.57
2017-06-14T13:07:18.009Z,6.20
2017-06-14T13:09:46.316Z,6.00
2017-06-14T13:12:13.753Z,6.07
2017-06-14T13:14:41.198Z,4.90
2017-06-14T13:17:09.442Z,5.37
2017-06-14T13:19:36.937Z,5.70
2017-06-14T13:22:04.382Z,5.90
2017-06-14T13:24:32.625Z,7.00
2017-06-14T13:27:00.074Z,7.40
2017-06-14T13:29:27.522Z,5.77
2017-06-14T13:31:54.969Z,6.43
2017-06-14T13:34:22.418Z,6.13
2017-06-14T13:36:49.865Z,6.47
2017-06-14T13:39:17.309Z,6.77
2017-06-14T13:41:44.758Z,6.70
2017-06-14T13:44:12.978Z,6.03
2017-06-14T13:46:40.422Z,6.50
2017-06-14T13:49:07.871Z,6.90
2017-06-14T13:51:35.327Z,7.80
2017-06-14T13:54:02.769Z,6.73
2017-06-14T13:56:30.221Z,6.67
2017-06-14T13:58:58.440Z,7.50
2017-06-14T14:01:25.888Z,7.37
2017-06-14T14:03:53.329Z,7.27
2017-06-14T14:06:20.773Z,6.57
2017-06-14T14:08:48.225Z,7.83
2017-06-14T14:11:16.450Z,6.60
2017-06-14T14:13:43.906Z,6.37
2017-06-14T14:16:11.400Z,6.40
2017-06-14T14:18:38.842Z,6.70
2017-06-14T14:21:06.298Z,6.80
2017-06-14T14:23:33.753Z,6.40
2017-06-14T14:26:02.298Z,7.10
2017-06-14T14:28:30.586Z,7.00
2017-06-14T14:30:58.056Z,6.50
2017-06-14T14:33:25.504Z,6.50
2017-06-14T14:35:52.946Z,6.20
2017-06-14T14:38:20.395Z,6.00
2017-06-14T14:40:47.838Z,7.00
2017-06-14T14:43:15.299Z,7.53
2017-06-14T14:45:42.747Z,7.13
2017-06-14T14:48:10.957Z,6.97
2017-06-14T14:50:38.405Z,7.53
2017-06-14T14:53:05.870Z,6.93
2017-06-14T14:55:33.335Z,7.27
2017-06-14T14:58:00.783Z,6.60
2017-06-14T15:00:28.227Z,6.43
2017-06-14T15:02:55.674Z,7.37
2017-06-14T15:05:23.134Z,8.60
2017-06-14T15:07:50.583Z,6.90
2017-06-14T15:10:18.041Z,7.10
2017-06-14T15:12:45.485Z,7.03
2017-06-14T15:15:13.723Z,6.40
2017-06-14T15:17:41.156Z,6.70
2017-06-14T15:20:08.622Z,6.90
2017-06-14T15:22:36.065Z,7.00
2017-06-14T15:25:03.517Z,6.53
2017-06-14T15:27:30.958Z,6.70
2017-06-14T15:29:58.421Z,6.97
2017-06-14T15:32:25.861Z,6.87
2017-06-14T15:34:54.073Z,7.07
2017-06-14T15:37:21.514Z,6.80
2017-06-14T15:39:48.966Z,5.90
2017-06-14T15:42:16.400Z,6.40
2017-06-14T15:44:43.870Z,6.73
2017-06-14T15:47:11.313Z,6.83
2017-06-14T15:49:39.541Z,5.90
2017-06-14T15:52:06.997Z,7.07
2017-06-14T15:54:34.447Z,5.93
2017-06-14T15:57:01.894Z,6.20
2017-06-14T15:59:29.347Z,6.83
2017-06-14T16:02:01.127Z,6.57
2017-06-14T16:04:28.568Z,6.10
2017-06-14T16:06:56.018Z,6.73
2017-06-14T16:09:23.481Z,6.23
2017-06-14T16:11:50.917Z,5.57
2017-06-14T16:14:18.374Z,6.00
2017-06-14T16:16:45.828Z,6.57
2017-06-14T16:19:14.039Z,6.47
2017-06-14T16:21:41.682Z,6.73
2017-06-14T16:24:09.170Z,5.93
2017-06-14T16:26:36.621Z,7.30
2017-06-14T16:29:04.068Z,5.63
2017-06-14T16:31:31.514Z,6.47
2017-06-14T16:33:58.962Z,6.77
2017-06-14T16:36:26.397Z,6.00
2017-06-14T16:38:54.609Z,5.67
2017-06-14T16:41:22.049Z,5.73
2017-06-14T16:43:49.501Z,6.20
2017-06-14T16:46:16.945Z,6.00
2017-06-14T16:48:45.164Z,5.93
2017-06-14T16:51:12.610Z,5.30
2017-06-14T16:53:40.066Z,5.90
2017-06-14T16:56:07.509Z,5.13
2017-06-14T16:58:34.958Z,5.67
2017-06-14T17:01:02.397Z,5.50
2017-06-14T17:03:30.646Z,5.43
2017-06-14T17:05:58.086Z,5.70
2017-06-14T17:08:25.525Z,5.53
2017-06-14T17:10:53.021Z,4.87
2017-06-14T17:13:20.457Z,5.40
2017-06-14T17:15:47.922Z,5.57
2017-06-14T17:18:15.373Z,4.40
2017-06-14T17:20:42.835Z,4.80
2017-06-14T17:23:10.264Z,5.63
2017-06-14T17:25:37.725Z,4.57
2017-06-14T17:28:05.168Z,5.03
2017-06-14T17:30:32.614Z,4.40
2017-06-14T17:33:00.054Z,5.13
2017-06-14T17:35:28.281Z,4.50
2017-06-14T17:37:55.733Z,4.80
2017-06-14T17:40:23.169Z,4.43
2017-06-14T17:42:50.617Z,5.43
2017-06-14T17:45:18.065Z,4.73
2017-06-14T17:47:46.287Z,5.60
2017-06-14T17:50:13.747Z,5.10
2017-06-14T17:52:41.198Z,5.23
2017-06-14T17:55:08.641Z,4.50
2017-06-14T17:57:36.085Z,5.50
2017-06-14T18:00:03.542Z,5.40
2017-06-14T18:02:30.998Z,5.60
2017-06-14T18:04:58.437Z,5.30
2017-06-14T18:07:26.661Z,5.23
2017-06-14T18:09:54.105Z,5.53
2017-06-14T18:12:21.557Z,5.30
2017-06-14T18:14:49.046Z,5.50
2017-06-14T18:17:16.489Z,5.37
2017-06-14T18:19:43.947Z,5.83
2017-06-14T18:22:11.389Z,6.53
2017-06-14T18:24:38.855Z,5.17
2017-06-14T18:27:06.347Z,6.17
2017-06-14T18:29:33.797Z,6.50
2017-06-14T18:32:01.269Z,6.30
2017-06-14T18:34:28.814Z,5.47
2017-06-14T18:36:56.270Z,6.73
2017-06-14T18:39:23.799Z,6.30
2017-06-14T18:41:51.251Z,6.80
2017-06-14T18:44:18.694Z,5.40
2017-06-14T18:46:46.147Z,5.80
2017-06-14T18:49:13.676Z,6.30
2017-06-14T18:51:41.905Z,5.50
2017-06-14T18:54:09.408Z,6.30
2017-06-14T18:56:37.069Z,6.27
2017-06-14T18:59:04.531Z,5.70
2017-06-14T19:01:31.980Z,6.53
2017-06-14T19:03:59.447Z,5.73
2017-06-14T19:06:26.910Z,7.00
2017-06-14T19:08:55.170Z,6.10
2017-06-14T19:11:22.637Z,6.50
2017-06-14T19:13:50.909Z,6.47
2017-06-14T19:19:11.705Z,7.07
2017-06-14T19:21:39.149Z,6.30
2017-06-14T19:24:08.520Z,6.90
2017-06-14T19:26:36.721Z,7.70
2017-06-14T19:29:04.173Z,7.27
2017-06-14T19:31:31.639Z,8.07
2017-06-14T19:34:04.818Z,9.03
2017-06-14T19:36:53.126Z,7.47
2017-06-14T19:39:21.334Z,7.20
2017-06-14T19:41:48.818Z,8.20
2017-06-14T19:44:16.265Z,8.17
2017-06-14T19:46:43.714Z,7.77
2017-06-14T19:49:11.162Z,7.37
2017-06-14T19:51:38.618Z,7.10
2017-06-14T19:54:06.091Z,6.25
2017-06-14T19:56:33.543Z,7.60
2017-06-14T19:59:00.998Z,7.00
2017-06-14T20:01:28.438Z,7.73
2017-06-14T20:03:55.890Z,7.10
2017-06-14T20:06:23.334Z,6.97
2017-06-14T20:08:51.554Z,6.63
2017-06-14T20:11:19.006Z,7.60
2017-06-14T20:13:46.461Z,7.33
2017-06-14T20:16:13.901Z,7.60
2017-06-14T20:18:41.369Z,6.40
2017-06-14T20:21:08.818Z,7.07
2017-06-14T20:23:36.278Z,6.90
2017-06-14T20:26:03.730Z,6.87
2017-06-14T20:28:31.235Z,7.37
2017-06-14T20:30:58.737Z,6.83
2017-06-14T20:33:26.993Z,7.43
2017-06-14T20:35:55.218Z,6.83
2017-06-14T20:38:22.657Z,6.70
2017-06-14T20:40:50.158Z,7.30
2017-06-14T20:43:17.602Z,7.13
2017-06-14T20:45:45.056Z,7.50
2017-06-14T20:48:12.493Z,8.10
2017-06-14T20:50:39.950Z,9.13
2017-06-14T20:53:07.390Z,7.20
2017-06-14T20:55:35.789Z,6.80
2017-06-14T20:58:03.229Z,7.50
2017-06-14T21:00:30.687Z,6.67
2017-06-14T21:02:58.134Z,6.43
2017-06-14T21:05:25.582Z,6.10
2017-06-14T21:07:53.802Z,7.20
2017-06-14T21:10:21.249Z,6.90
2017-06-14T21:12:48.708Z,7.00
2017-06-14T21:15:16.193Z,8.20
2017-06-14T21:17:43.641Z,7.80
2017-06-14T21:20:11.096Z,7.00
2017-06-14T21:22:38.562Z,7.43
2017-06-14T21:25:06.009Z,7.00
2017-06-14T21:27:33.462Z,7.30
2017-06-14T21:30:00.922Z,7.63
2017-06-14T21:32:28.382Z,7.27
2017-06-14T21:34:55.843Z,6.93
2017-06-14T21:37:23.289Z,8.03
2017-06-14T21:39:50.734Z,7.40
2017-06-14T21:42:21.401Z,7.13
2017-06-14T21:44:48.854Z,7.77
2017-06-14T21:47:16.289Z,7.10
2017-06-14T21:49:43.742Z,7.30
2017-06-14T21:52:11.178Z,7.53
2017-06-14T21:54:38.688Z,7.90
2017-06-14T21:57:06.146Z,7.50
2017-06-14T21:59:33.585Z,8.30
2017-06-14T22:02:03.163Z,7.53
2017-06-14T22:04:30.613Z,7.60
2017-06-14T22:06:58.055Z,8.00
2017-06-14T22:09:25.519Z,8.17
2017-06-14T22:11:52.981Z,7.73
2017-06-14T22:14:20.425Z,8.10
2017-06-14T22:16:48.666Z,7.70
2017-06-14T22:19:16.102Z,7.80
2017-06-14T22:21:43.570Z,8.10
2017-06-14T22:24:11.013Z,8.67
2017-06-14T22:26:38.458Z,8.17
2017-06-14T22:29:05.911Z,7.03
2017-06-14T22:31:33.369Z,7.43
2017-06-14T22:34:00.867Z,7.83
2017-06-14T22:36:28.337Z,7.40
2017-06-14T22:38:55.783Z,6.90
2017-06-14T22:41:23.222Z,7.33
2017-06-14T22:43:50.677Z,7.97
2017-06-14T22:46:18.113Z,7.80
2017-06-14T22:48:45.561Z,7.60
2017-06-14T22:51:13.001Z,6.70
2017-06-14T22:53:41.218Z,8.50
2017-06-14T22:56:08.699Z,7.40
2017-06-14T22:58:36.154Z,7.17
2017-06-14T23:01:03.603Z,8.57
2017-06-14T23:03:31.058Z,8.97
2017-06-14T23:05:58.497Z,8.20
2017-06-14T23:08:25.945Z,7.90
2017-06-14T23:10:53.398Z,7.83
2017-06-14T23:13:20.849Z,8.40
2017-06-14T23:15:48.294Z,7.43
2017-06-14T23:18:15.742Z,7.50
2017-06-14T23:20:43.971Z,7.43
2017-06-14T23:23:11.414Z,8.07
2017-06-14T23:25:38.866Z,7.53
2017-06-14T23:28:06.318Z,7.40
2017-06-14T23:30:33.781Z,7.33
2017-06-14T23:33:01.217Z,7.53
2017-06-14T23:35:28.679Z,8.03
2017-06-14T23:37:56.110Z,8.53
2017-06-14T23:40:23.563Z,7.60
2017-06-14T23:42:51.770Z,8.10
2017-06-14T23:45:19.226Z,7.77
2017-06-14T23:47:46.669Z,8.00
2017-06-14T23:50:14.137Z,7.80
2017-06-14T23:52:41.594Z,8.23
2017-06-14T23:55:09.037Z,7.23
2017-06-14T23:57:37.250Z,7.70
